HEE weather

Thompson-Robbins Airport
Helena/West Helena, Arkansas, United States

Public forecast

Using degrees Fahrenheit for public forecast. Weather courtesy of forecast.io.

METAR (pilot weather report)

Closest report is Tunica Municipal Airport, 17.4 nm (32.3 km) ENE. Retrieved 2019/08/26 09:35 UTC (0 seconds ago):

KUTA 260935Z AUTO 16005KT 10SM 22/22 A2985 RMK AO2 TSNO

TAF (pilot weather forecast)

Closest forecast is Memphis International Airport, 44.4 nm (82.2 km) NE. Retrieved 2019/08/26 06:22 UTC (3 hours ago):

TAF KMEM 260520Z 2606/2712 16005KT P6SM VCSH SCT008 BKN015 OVC030 TEMPO 2606/2609 OVC008 FM260900 17005KT P6SM BKN008 OVC015 FM261400 18005KT P6SM SCT008 OVC015 FM261600 18007KT P6SM SCT015 BKN025 BKN080 FM261800 18007KT P6SM BKN035 BKN080 FM262000 18005KT P6SM SCT035 SCT080 FM270100 VRB03KT P6SM BKN250